sensor_id;sensor_type;location;lat;lon;timestamp;pressure;altitude;pressure_sealevel;temperature;humidity
51315;BME280;65787;59.922;10.742;2023-05-24T00:01:35;101095.88;;;21.61;36.91
51315;BME280;65787;59.922;10.742;2023-05-24T00:04:01;101093.91;;;21.56;36.74
51315;BME280;65787;59.922;10.742;2023-05-24T00:06:27;101089.44;;;21.50;36.48
51315;BME280;65787;59.922;10.742;2023-05-24T00:08:52;101097.06;;;21.48;36.58
51315;BME280;65787;59.922;10.742;2023-05-24T00:11:20;101098.72;;;21.49;36.83
51315;BME280;65787;59.922;10.742;2023-05-24T00:13:46;101100.69;;;21.54;36.68
51315;BME280;65787;59.922;10.742;2023-05-24T00:16:11;101104.91;;;21.61;36.51
51315;BME280;65787;59.922;10.742;2023-05-24T00:18:36;101097.03;;;21.65;36.71
51315;BME280;65787;59.922;10.742;2023-05-24T00:21:11;101104.97;;;21.67;36.97
51315;BME280;65787;59.922;10.742;2023-05-24T00:23:39;101104.16;;;21.66;36.94
51315;BME280;65787;59.922;10.742;2023-05-24T00:26:06;101102.81;;;21.69;36.71
51315;BME280;65787;59.922;10.742;2023-05-24T00:28:32;101102.56;;;21.70;36.83
51315;BME280;65787;59.922;10.742;2023-05-24T00:30:57;101098.81;;;21.76;36.56
51315;BME280;65787;59.922;10.742;2023-05-24T00:33:23;101096.06;;;21.76;36.50
51315;BME280;65787;59.922;10.742;2023-05-24T00:35:48;101091.63;;;21.70;36.76
51315;BME280;65787;59.922;10.742;2023-05-24T00:38:15;101098.13;;;21.64;37.14
51315;BME280;65787;59.922;10.742;2023-05-24T00:40:41;101087.69;;;21.61;36.99
51315;BME280;65787;59.922;10.742;2023-05-24T00:43:06;101093.13;;;21.61;36.97
51315;BME280;65787;59.922;10.742;2023-05-24T00:45:31;101098.59;;;21.61;37.21
51315;BME280;65787;59.922;10.742;2023-05-24T00:47:56;101090.66;;;21.59;36.95
51315;BME280;65787;59.922;10.742;2023-05-24T00:50:25;101096.69;;;21.61;36.94
51315;BME280;65787;59.922;10.742;2023-05-24T00:52:50;101093.72;;;21.63;37.04
51315;BME280;65787;59.922;10.742;2023-05-24T00:55:15;101098.84;;;21.59;37.37
51315;BME280;65787;59.922;10.742;2023-05-24T00:57:41;101104.91;;;21.61;37.04
51315;BME280;65787;59.922;10.742;2023-05-24T01:00:07;101102.41;;;21.60;37.08
51315;BME280;65787;59.922;10.742;2023-05-24T01:02:32;101106.00;;;21.60;36.73
51315;BME280;65787;59.922;10.742;2023-05-24T01:04:59;101098.59;;;21.61;36.98
51315;BME280;65787;59.922;10.742;2023-05-24T01:07:26;101096.19;;;21.64;36.42
51315;BME280;65787;59.922;10.742;2023-05-24T01:15:23;101094.59;;;21.69;36.94
51315;BME280;65787;59.922;10.742;2023-05-24T01:20:32;101093.88;;;21.73;36.68
51315;BME280;65787;59.922;10.742;2023-05-24T01:23:05;101098.81;;;21.76;36.58
51315;BME280;65787;59.922;10.742;2023-05-24T01:27:59;101089.53;;;21.77;36.40
51315;BME280;65787;59.922;10.742;2023-05-24T01:30:25;101083.75;;;21.74;36.19
51315;BME280;65787;59.922;10.742;2023-05-24T01:32:51;101087.22;;;21.69;36.11
51315;BME280;65787;59.922;10.742;2023-05-24T01:35:16;101082.28;;;21.66;36.65
51315;BME280;65787;59.922;10.742;2023-05-24T01:37:42;101086.34;;;21.63;36.80
51315;BME280;65787;59.922;10.742;2023-05-24T01:40:07;101083.44;;;21.70;36.61
51315;BME280;65787;59.922;10.742;2023-05-24T01:45:05;101083.91;;;21.67;36.38
51315;BME280;65787;59.922;10.742;2023-05-24T01:52:54;101083.88;;;21.62;36.67
51315;BME280;65787;59.922;10.742;2023-05-24T01:55:22;101078.66;;;21.60;36.13
51315;BME280;65787;59.922;10.742;2023-05-24T01:57:51;101072.94;;;21.62;36.20
51315;BME280;65787;59.922;10.742;2023-05-24T02:00:19;101080.88;;;21.63;36.52
51315;BME280;65787;59.922;10.742;2023-05-24T02:02:45;101081.13;;;21.62;36.26
51315;BME280;65787;59.922;10.742;2023-05-24T02:05:11;101088.00;;;21.64;36.90
51315;BME280;65787;59.922;10.742;2023-05-24T02:07:36;101090.97;;;21.63;36.60
51315;BME280;65787;59.922;10.742;2023-05-24T02:10:02;101091.22;;;21.61;36.49
51315;BME280;65787;59.922;10.742;2023-05-24T02:12:28;101096.94;;;21.60;36.22
51315;BME280;65787;59.922;10.742;2023-05-24T02:14:53;101097.78;;;21.60;36.77
51315;BME280;65787;59.922;10.742;2023-05-24T02:17:18;101098.03;;;21.59;36.57
51315;BME280;65787;59.922;10.742;2023-05-24T02:19:43;101102.41;;;21.60;36.45
51315;BME280;65787;59.922;10.742;2023-05-24T02:22:09;101098.03;;;21.59;36.12
51315;BME280;65787;59.922;10.742;2023-05-24T02:24:35;101099.66;;;21.60;36.51
51315;BME280;65787;59.922;10.742;2023-05-24T02:27:01;101102.50;;;21.65;36.32
51315;BME280;65787;59.922;10.742;2023-05-24T02:29:27;101100.00;;;21.63;36.00
51315;BME280;65787;59.922;10.742;2023-05-24T02:31:53;101093.97;;;21.61;35.85
51315;BME280;65787;59.922;10.742;2023-05-24T02:34:21;101086.34;;;21.63;36.22
51315;BME280;65787;59.922;10.742;2023-05-24T02:36:47;101084.13;;;21.60;36.41
51315;BME280;65787;59.922;10.742;2023-05-24T02:39:12;101090.72;;;21.64;35.93
51315;BME280;65787;59.922;10.742;2023-05-24T02:41:38;101088.56;;;21.67;35.84
51315;BME280;65787;59.922;10.742;2023-05-24T02:44:04;101089.91;;;21.64;36.37
51315;BME280;65787;59.922;10.742;2023-05-24T02:46:29;101095.88;;;21.61;35.97
51315;BME280;65787;59.922;10.742;2023-05-24T02:48:54;101084.94;;;21.61;36.12
51315;BME280;65787;59.922;10.742;2023-05-24T02:51:19;101087.69;;;21.61;36.01
51315;BME280;65787;59.922;10.742;2023-05-24T02:53:45;101087.19;;;21.64;36.26
51315;BME280;65787;59.922;10.742;2023-05-24T02:56:10;101087.44;;;21.62;36.52
51315;BME280;65787;59.922;10.742;2023-05-24T02:58:37;101088.25;;;21.63;36.11
51315;BME280;65787;59.922;10.742;2023-05-24T03:01:05;101097.03;;;21.65;36.20
51315;BME280;65787;59.922;10.742;2023-05-24T03:03:31;101084.16;;;21.65;36.40
51315;BME280;65787;59.922;10.742;2023-05-24T03:05:56;101090.56;;;21.71;36.05
51315;BME280;65787;59.922;10.742;2023-05-24T03:08:21;101096.59;;;21.73;36.72
51315;BME280;65787;59.922;10.742;2023-05-24T03:10:47;101092.78;;;21.74;36.64
51315;BME280;65787;59.922;10.742;2023-05-24T03:13:12;101095.19;;;21.71;36.47
51315;BME280;65787;59.922;10.742;2023-05-24T03:15:37;101096.59;;;21.73;36.18
51315;BME280;65787;59.922;10.742;2023-05-24T03:18:03;101104.28;;;21.76;36.04
51315;BME280;65787;59.922;10.742;2023-05-24T03:20:28;101095.81;;;21.78;35.80
51315;BME280;65787;59.922;10.742;2023-05-24T03:22:53;101089.03;;;21.80;36.44
51315;BME280;65787;59.922;10.742;2023-05-24T03:25:19;101080.88;;;21.85;35.85
51315;BME280;65787;59.922;10.742;2023-05-24T03:27:44;101080.06;;;21.85;36.21
51315;BME280;65787;59.922;10.742;2023-05-24T03:30:10;101077.59;;;21.83;35.97
51315;BME280;65787;59.922;10.742;2023-05-24T03:32:35;101075.97;;;21.88;36.23
51315;BME280;65787;59.922;10.742;2023-05-24T03:35:00;101070.50;;;21.88;36.52
51315;BME280;65787;59.922;10.742;2023-05-24T03:37:26;101068.94;;;21.92;36.35
51315;BME280;65787;59.922;10.742;2023-05-24T03:39:52;101075.88;;;21.99;36.70
51315;BME280;65787;59.922;10.742;2023-05-24T03:42:17;101069.38;;;22.06;35.97
51315;BME280;65787;59.922;10.742;2023-05-24T03:44:43;101072.19;;;22.11;36.26
51315;BME280;65787;59.922;10.742;2023-05-24T03:47:08;101064.28;;;22.14;36.04
51315;BME280;65787;59.922;10.742;2023-05-24T03:49:33;101063.25;;;22.20;36.04
51315;BME280;65787;59.922;10.742;2023-05-24T03:51:59;101059.50;;;22.27;36.37
51315;BME280;65787;59.922;10.742;2023-05-24T03:54:24;101058.44;;;22.28;36.35
51315;BME280;65787;59.922;10.742;2023-05-24T03:56:49;101058.50;;;22.33;36.17
51315;BME280;65787;59.922;10.742;2023-05-24T03:59:17;101056.34;;;22.35;35.66
51315;BME280;65787;59.922;10.742;2023-05-24T04:01:42;101058.25;;;22.34;35.78
51315;BME280;65787;59.922;10.742;2023-05-24T04:04:07;101053.59;;;22.35;35.89
51315;BME280;65787;59.922;10.742;2023-05-24T04:06:33;101051.47;;;22.42;35.79
51315;BME280;65787;59.922;10.742;2023-05-24T04:09:00;101050.13;;;22.45;36.44
51315;BME280;65787;59.922;10.742;2023-05-24T04:11:29;101052.13;;;22.54;35.93
51315;BME280;65787;59.922;10.742;2023-05-24T04:13:54;101053.00;;;22.60;35.19
51315;BME280;65787;59.922;10.742;2023-05-24T04:16:20;101061.25;;;22.65;35.21
51315;BME280;65787;59.922;10.742;2023-05-24T04:18:48;101066.31;;;22.78;35.31
51315;BME280;65787;59.922;10.742;2023-05-24T04:21:13;101068.53;;;22.81;35.70
51315;BME280;65787;59.922;10.742;2023-05-24T04:23:38;101070.22;;;22.88;35.43
51315;BME280;65787;59.922;10.742;2023-05-24T04:26:04;101066.72;;;22.92;34.70
51315;BME280;65787;59.922;10.742;2023-05-24T04:28:30;101069.50;;;22.97;34.44
51315;BME280;65787;59.922;10.742;2023-05-24T04:30:55;101071.38;;;22.97;34.77
51315;BME280;65787;59.922;10.742;2023-05-24T04:33:21;101068.59;;;22.92;34.74
51315;BME280;65787;59.922;10.742;2023-05-24T04:35:51;101068.03;;;22.90;35.10
51315;BME280;65787;59.922;10.742;2023-05-24T04:38:17;101057.59;;;22.81;34.26
51315;BME280;65787;59.922;10.742;2023-05-24T04:40:43;101057.75;;;22.70;34.84
51315;BME280;65787;59.922;10.742;2023-05-24T04:43:09;101055.44;;;22.56;35.58
51315;BME280;65787;59.922;10.742;2023-05-24T04:45:35;101054.25;;;22.47;35.02
51315;BME280;65787;59.922;10.742;2023-05-24T04:48:01;101059.13;;;22.40;35.51
51315;BME280;65787;59.922;10.742;2023-05-24T04:50:26;101047.59;;;22.38;35.83
51315;BME280;65787;59.922;10.742;2023-05-24T04:52:52;101053.28;;;22.31;35.84
51315;BME280;65787;59.922;10.742;2023-05-24T04:55:19;101049.97;;;22.29;35.85
51315;BME280;65787;59.922;10.742;2023-05-24T04:57:45;101044.75;;;22.28;35.49
51315;BME280;65787;59.922;10.742;2023-05-24T05:00:10;101050.22;;;22.28;35.94
51315;BME280;65787;59.922;10.742;2023-05-24T05:02:36;101042.59;;;22.30;36.14
51315;BME280;65787;59.922;10.742;2023-05-24T05:05:01;101041.19;;;22.27;35.78
51315;BME280;65787;59.922;10.742;2023-05-24T05:07:27;101029.53;;;22.37;35.91
51315;BME280;65787;59.922;10.742;2023-05-24T05:09:52;101027.03;;;22.35;35.55
51315;BME280;65787;59.922;10.742;2023-05-24T05:12:17;101025.97;;;22.36;35.36
51315;BME280;65787;59.922;10.742;2023-05-24T05:14:42;101040.34;;;22.27;35.33
51315;BME280;65787;59.922;10.742;2023-05-24T05:17:08;101041.78;;;22.29;35.71
51315;BME280;65787;59.922;10.742;2023-05-24T05:19:33;101041.81;;;22.34;35.42
51315;BME280;65787;59.922;10.742;2023-05-24T05:21:58;101044.84;;;22.38;35.47
51315;BME280;65787;59.922;10.742;2023-05-24T05:24:24;101040.22;;;22.38;35.64
51315;BME280;65787;59.922;10.742;2023-05-24T05:26:49;101029.78;;;22.35;35.47
51315;BME280;65787;59.922;10.742;2023-05-24T05:29:14;101037.44;;;22.33;35.60
51315;BME280;65787;59.922;10.742;2023-05-24T05:31:40;101035.50;;;22.34;35.72
51315;BME280;65787;59.922;10.742;2023-05-24T05:34:05;101051.06;;;22.28;35.61
51315;BME280;65787;59.922;10.742;2023-05-24T05:36:34;101057.38;;;22.07;36.03
51315;BME280;65787;59.922;10.742;2023-05-24T05:39:04;101053.75;;;22.01;36.14
51315;BME280;65787;59.922;10.742;2023-05-24T05:41:30;101060.91;;;22.07;35.99
51315;BME280;65787;59.922;10.742;2023-05-24T05:43:55;101056.16;;;22.19;36.13
51315;BME280;65787;59.922;10.742;2023-05-24T05:46:21;101053.91;;;22.16;35.90
51315;BME280;65787;59.922;10.742;2023-05-24T05:48:46;101052.78;;;22.12;36.01
51315;BME280;65787;59.922;10.742;2023-05-24T05:51:11;101045.06;;;22.09;35.92
51315;BME280;65787;59.922;10.742;2023-05-24T05:53:37;101036.03;;;22.09;35.81
51315;BME280;65787;59.922;10.742;2023-05-24T05:56:02;101043.56;;;21.96;36.03
51315;BME280;65787;59.922;10.742;2023-05-24T05:58:27;101039.94;;;21.91;36.17
51315;BME280;65787;59.922;10.742;2023-05-24T06:00:53;101046.47;;;21.90;35.88
51315;BME280;65787;59.922;10.742;2023-05-24T06:03:18;101051.91;;;21.84;36.18
51315;BME280;65787;59.922;10.742;2023-05-24T06:05:43;101057.22;;;21.96;36.39
51315;BME280;65787;59.922;10.742;2023-05-24T06:08:08;101053.84;;;22.11;36.10
51315;BME280;65787;59.922;10.742;2023-05-24T06:10:34;101049.16;;;22.07;36.15
51315;BME280;65787;59.922;10.742;2023-05-24T06:13:00;101048.22;;;22.23;35.91
51315;BME280;65787;59.922;10.742;2023-05-24T06:15:25;101032.16;;;22.27;35.85
51315;BME280;65787;59.922;10.742;2023-05-24T06:17:51;101031.13;;;22.33;35.70
51315;BME280;65787;59.922;10.742;2023-05-24T06:20:17;101025.44;;;22.39;35.63
51315;BME280;65787;59.922;10.742;2023-05-24T06:22:42;101026.59;;;22.44;35.72
51315;BME280;65787;59.922;10.742;2023-05-24T06:25:07;101027.19;;;22.51;35.54
51315;BME280;65787;59.922;10.742;2023-05-24T06:27:33;101023.44;;;22.57;35.38
51315;BME280;65787;59.922;10.742;2023-05-24T06:29:58;101017.97;;;22.62;35.50
51315;BME280;65787;59.922;10.742;2023-05-24T06:32:23;101025.38;;;22.61;35.34
51315;BME280;65787;59.922;10.742;2023-05-24T06:34:49;101033.06;;;22.65;34.74
51315;BME280;65787;59.922;10.742;2023-05-24T06:37:14;101033.84;;;22.60;35.38
51315;BME280;65787;59.922;10.742;2023-05-24T06:39:40;101038.41;;;22.49;35.14
51315;BME280;65787;59.922;10.742;2023-05-24T06:42:05;101035.94;;;22.48;35.14
51315;BME280;65787;59.922;10.742;2023-05-24T06:44:31;101038.69;;;22.53;35.47
51315;BME280;65787;59.922;10.742;2023-05-24T06:46:59;101044.84;;;22.65;35.17
51315;BME280;65787;59.922;10.742;2023-05-24T06:49:24;101045.44;;;22.72;35.15
51315;BME280;65787;59.922;10.742;2023-05-24T06:51:49;101044.16;;;22.80;35.53
51315;BME280;65787;59.922;10.742;2023-05-24T06:54:15;101042.84;;;22.88;35.20
51315;BME280;65787;59.922;10.742;2023-05-24T06:56:40;101045.00;;;22.86;34.72
51315;BME280;65787;59.922;10.742;2023-05-24T06:59:06;101044.69;;;22.82;34.62
51315;BME280;65787;59.922;10.742;2023-05-24T07:01:32;101040.53;;;22.74;34.52
51315;BME280;65787;59.922;10.742;2023-05-24T07:03:58;101031.56;;;22.84;34.04
51315;BME280;65787;59.922;10.742;2023-05-24T07:06:23;101031.50;;;23.06;34.68
51315;BME280;65787;59.922;10.742;2023-05-24T07:08:49;101015.53;;;22.98;32.90
51315;BME280;65787;59.922;10.742;2023-05-24T07:11:14;101021.81;;;22.98;33.17
51315;BME280;65787;59.922;10.742;2023-05-24T07:13:40;101015.75;;;22.91;33.24
51315;BME280;65787;59.922;10.742;2023-05-24T07:16:05;101022.25;;;23.17;32.66
51315;BME280;65787;59.922;10.742;2023-05-24T07:18:31;101030.25;;;23.24;32.18
51315;BME280;65787;59.922;10.742;2023-05-24T07:20:56;101028.41;;;23.35;33.66
51315;BME280;65787;59.922;10.742;2023-05-24T07:23:21;101026.06;;;23.59;33.50
51315;BME280;65787;59.922;10.742;2023-05-24T07:25:46;101032.41;;;23.65;32.48
51315;BME280;65787;59.922;10.742;2023-05-24T07:28:12;101021.91;;;23.51;32.73
51315;BME280;65787;59.922;10.742;2023-05-24T07:30:39;101023.19;;;23.33;33.21
51315;BME280;65787;59.922;10.742;2023-05-24T07:33:04;101020.47;;;23.44;33.20
51315;BME280;65787;59.922;10.742;2023-05-24T07:35:30;101016.28;;;23.31;33.88
51315;BME280;65787;59.922;10.742;2023-05-24T07:37:55;101019.63;;;23.38;33.37
51315;BME280;65787;59.922;10.742;2023-05-24T07:40:21;101011.91;;;23.30;33.91
51315;BME280;65787;59.922;10.742;2023-05-24T07:42:47;101014.88;;;23.23;33.61
51315;BME280;65787;59.922;10.742;2023-05-24T07:45:13;101017.16;;;23.31;33.60
51315;BME280;65787;59.922;10.742;2023-05-24T07:47:39;101018.22;;;23.30;33.75
51315;BME280;65787;59.922;10.742;2023-05-24T07:50:04;101018.03;;;23.42;33.56
51315;BME280;65787;59.922;10.742;2023-05-24T07:52:30;101021.34;;;23.49;33.68
51315;BME280;65787;59.922;10.742;2023-05-24T07:54:55;101019.72;;;23.53;33.68
51315;BME280;65787;59.922;10.742;2023-05-24T07:57:20;101023.31;;;23.64;33.60
51315;BME280;65787;59.922;10.742;2023-05-24T07:59:46;101024.16;;;23.70;33.75
51315;BME280;65787;59.922;10.742;2023-05-24T08:02:12;101022.31;;;23.81;33.96
51315;BME280;65787;59.922;10.742;2023-05-24T08:04:41;101030.56;;;23.81;33.06
51315;BME280;65787;59.922;10.742;2023-05-24T08:07:06;101027.03;;;23.85;33.72
51315;BME280;65787;59.922;10.742;2023-05-24T08:09:31;101029.81;;;24.01;33.55
51315;BME280;65787;59.922;10.742;2023-05-24T08:12:06;101025.13;;;24.01;33.07
51315;BME280;65787;59.922;10.742;2023-05-24T08:14:31;101030.38;;;24.18;33.09
51315;BME280;65787;59.922;10.742;2023-05-24T08:16:57;101020.81;;;24.21;33.15
51315;BME280;65787;59.922;10.742;2023-05-24T08:19:24;101023.03;;;24.39;33.31
51315;BME280;65787;59.922;10.742;2023-05-24T08:21:50;101026.06;;;24.43;33.01
51315;BME280;65787;59.922;10.742;2023-05-24T08:24:15;101025.81;;;24.54;33.26
51315;BME280;65787;59.922;10.742;2023-05-24T08:26:41;101027.19;;;24.57;33.26
51315;BME280;65787;59.922;10.742;2023-05-24T08:29:09;101025.50;;;24.51;32.39
51315;BME280;65787;59.922;10.742;2023-05-24T08:31:34;101028.25;;;24.51;32.40
51315;BME280;65787;59.922;10.742;2023-05-24T08:34:00;101024.72;;;24.61;32.61
51315;BME280;65787;59.922;10.742;2023-05-24T08:36:26;101029.69;;;24.69;31.97
51315;BME280;65787;59.922;10.742;2023-05-24T08:38:51;101023.91;;;24.60;31.99
51315;BME280;65787;59.922;10.742;2023-05-24T08:41:17;101021.44;;;24.74;32.08
51315;BME280;65787;59.922;10.742;2023-05-24T08:43:42;101009.88;;;24.77;32.56
51315;BME280;65787;59.922;10.742;2023-05-24T08:46:10;101005.22;;;24.78;31.05
51315;BME280;65787;59.922;10.742;2023-05-24T08:48:46;101001.13;;;24.65;30.94
51315;BME280;65787;59.922;10.742;2023-05-24T08:51:14;101001.94;;;24.65;31.32
51315;BME280;65787;59.922;10.742;2023-05-24T08:53:40;101001.66;;;24.87;31.85
51315;BME280;65787;59.922;10.742;2023-05-24T08:56:13;100998.34;;;24.75;30.49
51315;BME280;65787;59.922;10.742;2023-05-24T08:58:41;101000.53;;;24.88;30.60
51315;BME280;65787;59.922;10.742;2023-05-24T09:01:07;101006.56;;;24.96;30.52
51315;BME280;65787;59.922;10.742;2023-05-24T09:03:32;100992.56;;;25.07;30.70
51315;BME280;65787;59.922;10.742;2023-05-24T09:06:00;100983.72;;;25.10;30.41
51315;BME280;65787;59.922;10.742;2023-05-24T09:08:26;100994.44;;;25.27;30.52
51315;BME280;65787;59.922;10.742;2023-05-24T09:10:52;100980.94;;;25.31;30.65
51315;BME280;65787;59.922;10.742;2023-05-24T09:13:18;100976.22;;;25.52;31.05
51315;BME280;65787;59.922;10.742;2023-05-24T09:15:43;100973.31;;;25.78;30.65
51315;BME280;65787;59.922;10.742;2023-05-24T09:18:09;100974.97;;;25.84;30.31
51315;BME280;65787;59.922;10.742;2023-05-24T09:20:34;100973.78;;;26.00;30.17
51315;BME280;65787;59.922;10.742;2023-05-24T09:22:59;100972.28;;;26.18;30.29
51315;BME280;65787;59.922;10.742;2023-05-24T09:25:27;100973.97;;;26.14;29.64
51315;BME280;65787;59.922;10.742;2023-05-24T09:27:54;100969.22;;;26.25;29.96
51315;BME280;65787;59.922;10.742;2023-05-24T09:30:19;100954.47;;;26.45;29.55
51315;BME280;65787;59.922;10.742;2023-05-24T09:32:55;100959.19;;;26.39;28.76
51315;BME280;65787;59.922;10.742;2023-05-24T09:35:21;100960.31;;;26.73;28.89
51315;BME280;65787;59.922;10.742;2023-05-24T09:37:46;100956.59;;;27.12;29.25
51315;BME280;65787;59.922;10.742;2023-05-24T09:40:18;100957.19;;;27.33;28.11
51315;BME280;65787;59.922;10.742;2023-05-24T09:42:46;100952.19;;;27.78;29.28
51315;BME280;65787;59.922;10.742;2023-05-24T09:45:15;100959.31;;;28.03;28.01
51315;BME280;65787;59.922;10.742;2023-05-24T09:47:40;100954.75;;;28.12;26.25
51315;BME280;65787;59.922;10.742;2023-05-24T09:50:13;100945.03;;;28.15;27.74
51315;BME280;65787;59.922;10.742;2023-05-24T09:52:39;100946.06;;;28.38;27.81
51315;BME280;65787;59.922;10.742;2023-05-24T09:55:12;100935.03;;;28.38;26.59
51315;BME280;65787;59.922;10.742;2023-05-24T09:57:38;100932.13;;;28.29;27.67
51315;BME280;65787;59.922;10.742;2023-05-24T10:00:04;100936.50;;;27.97;25.96
51315;BME280;65787;59.922;10.742;2023-05-24T10:02:32;100935.19;;;27.71;26.10
51315;BME280;65787;59.922;10.742;2023-05-24T10:04:58;100936.31;;;27.70;26.55
51315;BME280;65787;59.922;10.742;2023-05-24T10:07:24;100935.88;;;28.00;26.84
51315;BME280;65787;59.922;10.742;2023-05-24T10:09:50;100934.06;;;28.10;26.65
51315;BME280;65787;59.922;10.742;2023-05-24T10:12:15;100938.78;;;28.09;25.84
51315;BME280;65787;59.922;10.742;2023-05-24T10:14:41;100935.53;;;28.21;27.38
51315;BME280;65787;59.922;10.742;2023-05-24T10:17:06;100944.19;;;28.33;26.19
51315;BME280;65787;59.922;10.742;2023-05-24T10:19:32;100937.13;;;28.60;25.91
51315;BME280;65787;59.922;10.742;2023-05-24T10:21:57;100940.34;;;28.81;26.65
51315;BME280;65787;59.922;10.742;2023-05-24T10:24:24;100941.38;;;28.99;25.81
51315;BME280;65787;59.922;10.742;2023-05-24T10:26:50;100936.91;;;29.03;25.56
51315;BME280;65787;59.922;10.742;2023-05-24T10:29:50;100938.97;;;29.25;26.57
51315;BME280;65787;59.922;10.742;2023-05-24T10:32:05;100932.69;;;29.20;26.19
51315;BME280;65787;59.922;10.742;2023-05-24T10:34:32;100936.94;;;29.31;26.15
51315;BME280;65787;59.922;10.742;2023-05-24T10:36:58;100941.34;;;29.18;25.11
51315;BME280;65787;59.922;10.742;2023-05-24T10:39:23;100943.41;;;28.80;25.30
51315;BME280;65787;59.922;10.742;2023-05-24T10:41:49;100939.50;;;28.81;25.99
51315;BME280;65787;59.922;10.742;2023-05-24T10:44:17;100930.19;;;28.76;25.54
51315;BME280;65787;59.922;10.742;2023-05-24T10:47:01;100926.53;;;28.81;26.50
51315;BME280;65787;59.922;10.742;2023-05-24T10:49:27;100920.91;;;29.00;26.27
51315;BME280;65787;59.922;10.742;2023-05-24T10:51:59;100915.09;;;29.15;26.69
51315;BME280;65787;59.922;10.742;2023-05-24T10:54:25;100915.50;;;29.37;26.55
51315;BME280;65787;59.922;10.742;2023-05-24T10:56:53;100912.13;;;29.26;26.01
51315;BME280;65787;59.922;10.742;2023-05-24T10:59:30;100914.25;;;29.43;26.44
51315;BME280;65787;59.922;10.742;2023-05-24T11:01:59;100924.09;;;29.35;24.80
51315;BME280;65787;59.922;10.742;2023-05-24T11:04:25;100910.72;;;29.51;26.32
51315;BME280;65787;59.922;10.742;2023-05-24T11:06:54;100911.34;;;29.76;26.65
51315;BME280;65787;59.922;10.742;2023-05-24T11:09:20;100901.66;;;29.87;25.53
51315;BME280;65787;59.922;10.742;2023-05-24T11:11:51;100905.16;;;29.79;25.60
51315;BME280;65787;59.922;10.742;2023-05-24T11:14:24;100896.66;;;29.98;25.96
51315;BME280;65787;59.922;10.742;2023-05-24T11:16:51;100900.03;;;29.72;24.78
51315;BME280;65787;59.922;10.742;2023-05-24T11:19:17;100902.16;;;30.11;25.54
51315;BME280;65787;59.922;10.742;2023-05-24T11:21:43;100908.00;;;29.87;23.94
51315;BME280;65787;59.922;10.742;2023-05-24T11:24:10;100903.59;;;30.32;25.80
51315;BME280;65787;59.922;10.742;2023-05-24T11:26:35;100892.41;;;30.68;25.13
51315;BME280;65787;59.922;10.742;2023-05-24T11:29:01;100890.03;;;30.84;24.74
51315;BME280;65787;59.922;10.742;2023-05-24T11:31:28;100888.44;;;30.60;24.25
51315;BME280;65787;59.922;10.742;2023-05-24T11:33:53;100878.88;;;30.66;25.19
51315;BME280;65787;59.922;10.742;2023-05-24T11:36:19;100887.19;;;30.35;23.70
51315;BME280;65787;59.922;10.742;2023-05-24T11:38:45;100899.84;;;30.50;24.77
51315;BME280;65787;59.922;10.742;2023-05-24T11:41:11;100878.72;;;30.18;24.46
51315;BME280;65787;59.922;10.742;2023-05-24T11:43:37;100878.91;;;30.44;24.24
51315;BME280;65787;59.922;10.742;2023-05-24T11:46:02;100889.97;;;30.66;24.85
51315;BME280;65787;59.922;10.742;2023-05-24T11:48:27;100884.00;;;30.51;24.02
51315;BME280;65787;59.922;10.742;2023-05-24T11:50:53;100868.19;;;30.51;24.63
51315;BME280;65787;59.922;10.742;2023-05-24T11:53:19;100869.28;;;30.41;23.32
51315;BME280;65787;59.922;10.742;2023-05-24T11:55:45;100869.03;;;30.60;24.62
51315;BME280;65787;59.922;10.742;2023-05-24T11:58:17;100872.25;;;30.45;23.87
51315;BME280;65787;59.922;10.742;2023-05-24T12:00:44;100878.78;;;30.26;24.53
51315;BME280;65787;59.922;10.742;2023-05-24T12:03:09;100870.16;;;30.51;24.56
51315;BME280;65787;59.922;10.742;2023-05-24T12:05:35;100854.19;;;30.56;24.60
51315;BME280;65787;59.922;10.742;2023-05-24T12:08:08;100859.00;;;30.73;24.64
51315;BME280;65787;59.922;10.742;2023-05-24T12:10:34;100856.75;;;30.84;24.24
51315;BME280;65787;59.922;10.742;2023-05-24T12:13:01;100852.44;;;31.00;24.28
51315;BME280;65787;59.922;10.742;2023-05-24T12:15:27;100844.63;;;31.11;24.55
51315;BME280;65787;59.922;10.742;2023-05-24T12:17:53;100841.47;;;30.95;23.69
51315;BME280;65787;59.922;10.742;2023-05-24T12:20:18;100842.09;;;30.92;23.92
51315;BME280;65787;59.922;10.742;2023-05-24T12:22:48;100851.88;;;30.90;24.44
51315;BME280;65787;59.922;10.742;2023-05-24T12:25:16;100845.16;;;30.82;23.88
51315;BME280;65787;59.922;10.742;2023-05-24T12:27:44;100847.75;;;30.78;24.62
51315;BME280;65787;59.922;10.742;2023-05-24T12:30:12;100837.47;;;30.79;24.82
51315;BME280;65787;59.922;10.742;2023-05-24T12:32:42;100846.16;;;30.86;24.18
51315;BME280;65787;59.922;10.742;2023-05-24T12:35:09;100840.22;;;30.70;24.67
51315;BME280;65787;59.922;10.742;2023-05-24T12:37:35;100833.03;;;31.26;24.64
51315;BME280;65787;59.922;10.742;2023-05-24T12:40:00;100831.91;;;31.19;24.43
51315;BME280;65787;59.922;10.742;2023-05-24T12:42:29;100834.50;;;31.33;23.20
51315;BME280;65787;59.922;10.742;2023-05-24T12:44:54;100838.72;;;31.04;23.65
51315;BME280;65787;59.922;10.742;2023-05-24T12:47:19;100838.81;;;30.90;24.21
51315;BME280;65787;59.922;10.742;2023-05-24T12:49:45;100831.84;;;31.01;24.21
51315;BME280;65787;59.922;10.742;2023-05-24T12:52:11;100832.03;;;31.05;23.65
51315;BME280;65787;59.922;10.742;2023-05-24T12:54:36;100849.38;;;30.71;24.02